Aviation Digital Data Service (ADDS)

Output produced by METARs form (0245 UTC 29 November 2020)
found at http://www.aviationweather.gov/metar/data/
 
METAR text: RJSR 290200Z VRB02KT 9999 FEW010 BKN050 04/02 Q1021
Conditions at: RJSR (ODATE-NOSHIRO , JP) observed 0200 UTC 29 November 2020
Temperature: 4.0°C (39°F)
Dewpoint: 2.0°C (36°F) [RH = 87%]
Pressure (altimeter): 30.15 inches Hg (1021.0 mb)
Winds: variable direction winds at 2 MPH (2 knots; 1.0 m/s)
Visibility: 6 or more miles (10+ km)
Ceiling: 5000 feet AGL
Clouds: few clouds at 1000 feet AGL
broken clouds at 5000 feet AGL
Weather: no significant weather observed at this time

METAR text: RJSR 290100Z VRB01KT 9999 FEW005 SCT030 BKN050 03/01 Q1022
Conditions at: RJSR (ODATE-NOSHIRO , JP) observed 0100 UTC 29 November 2020
Temperature: 3.0°C (37°F)
Dewpoint: 1.0°C (34°F) [RH = 87%]
Pressure (altimeter): 30.18 inches Hg (1022.0 mb)
Winds: variable direction winds at 1 MPH (1 knots; 0.5 m/s)
Visibility: 6 or more miles (10+ km)
Ceiling: 5000 feet AGL
Clouds: few clouds at 500 feet AGL
scattered clouds at 3000 feet AGL
broken clouds at 5000 feet AGL
Weather: no significant weather observed at this time

METAR text: RJSR 290000Z VRB01KT 9999 FEW003 SCT030 BKN050 02/01 Q1022
Conditions at: RJSR (ODATE-NOSHIRO , JP) observed 0000 UTC 29 November 2020
Temperature: 2.0°C (36°F)
Dewpoint: 1.0°C (34°F) [RH = 93%]
Pressure (altimeter): 30.18 inches Hg (1022.0 mb)
Winds: variable direction winds at 1 MPH (1 knots; 0.5 m/s)
Visibility: 6 or more miles (10+ km)
Ceiling: 5000 feet AGL
Clouds: few clouds at 300 feet AGL
scattered clouds at 3000 feet AGL
broken clouds at 5000 feet AGL
Weather: no significant weather observed at this time

METAR text: RJSR 282300Z VRB02KT 9999 -SHSN FEW003 SCT030 BKN050 01/01 Q1021
Conditions at: RJSR (ODATE-NOSHIRO , JP) observed 2300 UTC 28 November 2020
Temperature: 1.0°C (34°F)
Dewpoint: 1.0°C (34°F) [RH = 100%]
Pressure (altimeter): 30.15 inches Hg (1021.0 mb)
Winds: variable direction winds at 2 MPH (2 knots; 1.0 m/s)
Visibility: 6 or more miles (10+ km)
Ceiling: 5000 feet AGL
Clouds: few clouds at 300 feet AGL
scattered clouds at 3000 feet AGL
broken clouds at 5000 feet AGL
Weather: -SHSN  (light snow showers)

METAR text: RJSR 281000Z 17003KT 140V200 9999 FEW010 SCT040 BKN050 01/01 Q1016
Conditions at: RJSR (ODATE-NOSHIRO , JP) observed 1000 UTC 28 November 2020
Temperature: 1.0°C (34°F)
Dewpoint: 1.0°C (34°F) [RH = 100%]
Pressure (altimeter): 30.00 inches Hg (1016.0 mb)
Winds: from the S (170 degrees) at 3 MPH (3 knots; 1.5 m/s)
Visibility: 6 or more miles (10+ km)
Ceiling: 5000 feet AGL
Clouds: few clouds at 1000 feet AGL
scattered clouds at 4000 feet AGL
broken clouds at 5000 feet AGL
Weather: no significant weather observed at this time

METAR text: RJSR 280900Z 16004KT 9999 FEW010 SCT040 BKN050 01/00 Q1016
Conditions at: RJSR (ODATE-NOSHIRO , JP) observed 0900 UTC 28 November 2020
Temperature: 1.0°C (34°F)
Dewpoint: 0.0°C (32°F) [RH = 93%]
Pressure (altimeter): 30.00 inches Hg (1016.0 mb)
Winds: from the SSE (160 degrees) at 5 MPH (4 knots; 2.1 m/s)
Visibility: 6 or more miles (10+ km)
Ceiling: 5000 feet AGL
Clouds: few clouds at 1000 feet AGL
scattered clouds at 4000 feet AGL
broken clouds at 5000 feet AGL
Weather: no significant weather observed at this time

METAR text: RJSR 280800Z 19003KT 9999 FEW010 SCT040 BKN050 02/M00 Q1016
Conditions at: RJSR (ODATE-NOSHIRO , JP) observed 0800 UTC 28 November 2020
Temperature: 2.0°C (36°F)
Dewpoint: 0.0°C (32°F) [RH = 87%]
Pressure (altimeter): 30.00 inches Hg (1016.0 mb)
Winds: from the S (190 degrees) at 3 MPH (3 knots; 1.5 m/s)
Visibility: 6 or more miles (10+ km)
Ceiling: 5000 feet AGL
Clouds: few clouds at 1000 feet AGL
scattered clouds at 4000 feet AGL
broken clouds at 5000 feet AGL
Weather: no significant weather observed at this time

METAR text: RJSR 280700Z 28005KT 250V330 9999 FEW010 SCT040 BKN050 02/M00 Q1015
Conditions at: RJSR (ODATE-NOSHIRO , JP) observed 0700 UTC 28 November 2020
Temperature: 2.0°C (36°F)
Dewpoint: 0.0°C (32°F) [RH = 87%]
Pressure (altimeter): 29.97 inches Hg (1015.0 mb)
Winds: from the W (280 degrees) at 6 MPH (5 knots; 2.6 m/s)
Visibility: 6 or more miles (10+ km)
Ceiling: 5000 feet AGL
Clouds: few clouds at 1000 feet AGL
scattered clouds at 4000 feet AGL
broken clouds at 5000 feet AGL
Weather: no significant weather observed at this time

METAR text: RJSR 280600Z 28008KT 9999 FEW010 SCT030 BKN050 03/00 Q1014
Conditions at: RJSR (ODATE-NOSHIRO , JP) observed 0600 UTC 28 November 2020
Temperature: 3.0°C (37°F)
Dewpoint: 0.0°C (32°F) [RH = 81%]
Pressure (altimeter): 29.94 inches Hg (1014.0 mb)
Winds: from the W (280 degrees) at 9 MPH (8 knots; 4.1 m/s)
Visibility: 6 or more miles (10+ km)
Ceiling: 5000 feet AGL
Clouds: few clouds at 1000 feet AGL
scattered clouds at 3000 feet AGL
broken clouds at 5000 feet AGL
Weather: no significant weather observed at this time

METAR text: RJSR 280500Z 25008KT 210V270 9999 -SHRA FEW010 SCT020 BKN070 04/02 Q1013
Conditions at: RJSR (ODATE-NOSHIRO , JP) observed 0500 UTC 28 November 2020
Temperature: 4.0°C (39°F)
Dewpoint: 2.0°C (36°F) [RH = 87%]
Pressure (altimeter): 29.91 inches Hg (1013.0 mb)
Winds: from the WSW (250 degrees) at 9 MPH (8 knots; 4.1 m/s)
Visibility: 6 or more miles (10+ km)
Ceiling: 7000 feet AGL
Clouds: few clouds at 1000 feet AGL
scattered clouds at 2000 feet AGL
broken clouds at 7000 feet AGL
Weather: -SHRA  (light rain showers)

METAR text: RJSR 280400Z 16004KT 9999 -SHRA FEW003 SCT015 BKN040 04/03 Q1013
Conditions at: RJSR (ODATE-NOSHIRO , JP) observed 0400 UTC 28 November 2020
Temperature: 4.0°C (39°F)
Dewpoint: 3.0°C (37°F) [RH = 93%]
Pressure (altimeter): 29.91 inches Hg (1013.0 mb)
Winds: from the SSE (160 degrees) at 5 MPH (4 knots; 2.1 m/s)
Visibility: 6 or more miles (10+ km)
Ceiling: 4000 feet AGL
Clouds: few clouds at 300 feet AGL
scattered clouds at 1500 feet AGL
broken clouds at 4000 feet AGL
Weather: -SHRA  (light rain showers)

METAR text: RJSR 280300Z VRB02KT 9999 FEW002 SCT010 BKN040 03/02 Q1013
Conditions at: RJSR (ODATE-NOSHIRO , JP) observed 0300 UTC 28 November 2020
Temperature: 3.0°C (37°F)
Dewpoint: 2.0°C (36°F) [RH = 93%]
Pressure (altimeter): 29.91 inches Hg (1013.0 mb)
Winds: variable direction winds at 2 MPH (2 knots; 1.0 m/s)
Visibility: 6 or more miles (10+ km)
Ceiling: 4000 feet AGL
Clouds: few clouds at 200 feet AGL
scattered clouds at 1000 feet AGL
broken clouds at 4000 feet AGL
Weather: no significant weather observed at this time

METAR text: RJSR 280200Z 19003KT 160V230 8000 -SHRA FEW002 SCT005 BKN010 02/02 Q1014
Conditions at: RJSR (ODATE-NOSHIRO , JP) observed 0200 UTC 28 November 2020
Temperature: 2.0°C (36°F)
Dewpoint: 2.0°C (36°F) [RH = 100%]
Pressure (altimeter): 29.94 inches Hg (1014.0 mb)
Winds: from the S (190 degrees) at 3 MPH (3 knots; 1.5 m/s)
Visibility: 5 miles ( 8 km)
Ceiling: 1000 feet AGL
Clouds: few clouds at 200 feet AGL
scattered clouds at 500 feet AGL
broken clouds at 1000 feet AGL
Weather: -SHRA  (light rain showers)

METAR text: RJSR 280125Z VRB01KT 6000 FEW002 SCT003 BKN010 01/01 Q1014 RMK 1ST002 3ST003 5ST010 A2995
Conditions at: RJSR (ODATE-NOSHIRO , JP) observed 0125 UTC 28 November 2020
Temperature: 1.0°C (34°F)
Dewpoint: 1.0°C (34°F) [RH = 100%]
Pressure (altimeter): 29.94 inches Hg (1014.0 mb)
Winds: variable direction winds at 1 MPH (1 knots; 0.5 m/s)
Visibility: 4 miles ( 6 km)
Ceiling: 1000 feet AGL
Clouds: few clouds at 200 feet AGL
scattered clouds at 300 feet AGL
broken clouds at 1000 feet AGL
Weather: no significant weather observed at this time

METAR text: RJSR 280100Z 00000KT 4000 BR FEW001 SCT003 BKN020 01/01 Q1014
Conditions at: RJSR (ODATE-NOSHIRO , JP) observed 0100 UTC 28 November 2020
Temperature: 1.0°C (34°F)
Dewpoint: 1.0°C (34°F) [RH = 100%]
Pressure (altimeter): 29.94 inches Hg (1014.0 mb)
Winds: calm
Visibility: 2.49 miles (4.01 km)
Ceiling: 2000 feet AGL
Clouds: few clouds at 100 feet AGL
scattered clouds at 300 feet AGL
broken clouds at 2000 feet AGL
Weather: BR  (mist)

METAR text: RJSR 280027Z 22002KT 2500 R11/0750VP2000D BCFG BR FEW001 SCT002 BKN005 01/01 Q1014 RMK 1ST001 3ST002 6ST005 A2995
Conditions at: RJSR (ODATE-NOSHIRO , JP) observed 0027 UTC 28 November 2020
Temperature: 1.0°C (34°F)
Dewpoint: 1.0°C (34°F) [RH = 100%]
Pressure (altimeter): 29.94 inches Hg (1014.0 mb)
Winds: from the SW (220 degrees) at 2 MPH (2 knots; 1.0 m/s)
Visibility: 1.55 miles (2.49 km)
Ceiling: 500 feet AGL
Clouds: few clouds at 100 feet AGL
scattered clouds at 200 feet AGL
broken clouds at 500 feet AGL
Weather: BCFG BR  (patches of fog, mist)

METAR text: RJSR 280011Z 00000KT 2500 BCFG BR FEW001 SCT002 BKN025 00/00 Q1014 RMK 1ST001 4ST002 5SC025 A2995
Conditions at: RJSR (ODATE-NOSHIRO , JP) observed 0011 UTC 28 November 2020
Temperature: 0.0°C (32°F)
Dewpoint: 0.0°C (32°F) [RH = 100%]
Pressure (altimeter): 29.94 inches Hg (1014.0 mb)
Winds: calm
Visibility: 1.55 miles (2.49 km)
Ceiling: 2500 feet AGL
Clouds: few clouds at 100 feet AGL
scattered clouds at 200 feet AGL
broken clouds at 2500 feet AGL
Weather: BCFG BR  (patches of fog, mist)

METAR text: RJSR 280000Z VRB01KT 3500 R11/P2000N BCFG BR FEW001 SCT002 BKN025 00/00 Q1014
Conditions at: RJSR (ODATE-NOSHIRO , JP) observed 0000 UTC 28 November 2020
Temperature: 0.0°C (32°F)
Dewpoint: 0.0°C (32°F) [RH = 100%]
Pressure (altimeter): 29.94 inches Hg (1014.0 mb)
Winds: variable direction winds at 1 MPH (1 knots; 0.5 m/s)
Visibility: 2.17 miles (3.49 km)
Ceiling: 2500 feet AGL
Clouds: few clouds at 100 feet AGL
scattered clouds at 200 feet AGL
broken clouds at 2500 feet AGL
Weather: BCFG BR  (patches of fog, mist)

METAR text: RJSR 272316Z VRB01KT 5000 BR FEW001 SCT002 BKN025 00/00 Q1013 RMK 1ST001 3ST002 6SC025 A2994
Conditions at: RJSR (ODATE-NOSHIRO , JP) observed 2316 UTC 27 November 2020
Temperature: 0.0°C (32°F)
Dewpoint: 0.0°C (32°F) [RH = 100%]
Pressure (altimeter): 29.91 inches Hg (1013.0 mb)
Winds: variable direction winds at 1 MPH (1 knots; 0.5 m/s)
Visibility: 3 miles ( 5 km)
Ceiling: 2500 feet AGL
Clouds: few clouds at 100 feet AGL
scattered clouds at 200 feet AGL
broken clouds at 2500 feet AGL
Weather: BR  (mist)

METAR text: RJSR 272300Z 10002KT 3000 -RA BCFG BR FEW001 SCT002 BKN020 00/00 Q1013
Conditions at: RJSR (ODATE-NOSHIRO , JP) observed 2300 UTC 27 November 2020
Temperature: 0.0°C (32°F)
Dewpoint: 0.0°C (32°F) [RH = 100%]
Pressure (altimeter): 29.91 inches Hg (1013.0 mb)
Winds: from the E (100 degrees) at 2 MPH (2 knots; 1.0 m/s)
Visibility: 1.86 miles (2.99 km)
Ceiling: 2000 feet AGL
Clouds: few clouds at 100 feet AGL
scattered clouds at 200 feet AGL
broken clouds at 2000 feet AGL
Weather: -RA BCFG BR  (light rain, patches of fog, mist)